Time;durP1;ratioP1;P1;durP2;ratioP2;P2;SDS_P1;SDS_P2;PMS_P1;PMS_P2;Temp;Humidity;BMP_temperature;BMP_pressure;BME280_temperature;BME280_humidity;BME280_pressure;Samples;Min_cycle;Max_cycle;Signal;HPM_P1;HPM_P2
2022/03/24 00:00:26;;;;;;;55.13;52.67;;;7.10;99.90;;;;;;4389670;32;20195;-59
2022/03/24 00:02:53;;;;;;;66.77;63.93;;;7.10;99.90;;;;;;4390859;32;20239;-59
2022/03/24 00:05:20;;;;;;;56.37;53.87;;;7.10;99.90;;;;;;4390160;32;20584;-59
2022/03/24 00:07:48;;;;;;;54.57;51.93;;;7.10;99.90;;;;;;4389848;32;20157;-59
2022/03/24 00:10:15;;;;;;;53.60;50.73;;;7.10;99.90;;;;;;4389336;32;20157;-58
2022/03/24 00:12:43;;;;;;;52.63;50.20;;;7.00;99.90;;;;;;4388098;32;20177;-59
2022/03/24 00:15:10;;;;;;;50.10;47.70;;;7.00;99.90;;;;;;4390114;32;20159;-59
2022/03/24 00:17:37;;;;;;;53.03;50.57;;;7.00;99.90;;;;;;4389094;32;20186;-59
2022/03/24 00:20:06;;;;;;;51.27;49.03;;;7.00;99.90;;;;;;4388166;32;20219;-60
2022/03/24 00:22:32;;;;;;;51.03;48.77;;;6.90;99.90;;;;;;4390812;32;20211;-59
2022/03/24 00:25:01;;;;;;;48.97;46.80;;;6.90;99.90;;;;;;4391280;32;20597;-59
2022/03/24 00:27:27;;;;;;;52.93;50.63;;;6.90;99.90;;;;;;4389660;32;20199;-59
2022/03/24 00:29:55;;;;;;;57.67;55.27;;;6.80;99.90;;;;;;4390235;32;20168;-59
2022/03/24 00:32:21;;;;;;;58.57;55.83;;;6.80;99.90;;;;;;4391555;32;20585;-59
2022/03/24 00:34:48;;;;;;;52.73;50.50;;;6.70;99.90;;;;;;4391509;32;20223;-59
2022/03/24 00:37:15;;;;;;;50.13;47.77;;;6.70;99.90;;;;;;4391369;32;20152;-59
2022/03/24 00:39:42;;;;;;;55.13;52.80;;;6.60;99.90;;;;;;4387890;32;20219;-59
2022/03/24 00:42:12;;;;;;;59.27;56.73;;;6.60;99.90;;;;;;4389563;32;20263;-59
2022/03/24 00:44:42;;;;;;;55.33;52.87;;;6.60;99.90;;;;;;4390221;32;20216;-59
2022/03/24 00:47:10;;;;;;;56.47;54.00;;;6.60;99.90;;;;;;4389738;32;20218;-59
2022/03/24 00:49:37;;;;;;;55.60;52.87;;;6.50;99.90;;;;;;4389608;32;20164;-59
2022/03/24 00:52:05;;;;;;;57.03;54.67;;;6.50;99.90;;;;;;4390658;32;20164;-59
2022/03/24 00:54:31;;;;;;;51.10;48.77;;;6.50;99.90;;;;;;4389469;32;20156;-59
2022/03/24 00:56:58;;;;;;;55.87;53.53;;;6.50;99.90;;;;;;4392387;32;20680;-59
2022/03/24 00:59:27;;;;;;;61.43;58.63;;;6.40;99.90;;;;;;4391153;32;20526;-59
2022/03/24 01:01:55;;;;;;;53.93;51.53;;;6.40;99.90;;;;;;4391454;32;20455;-58
2022/03/24 01:04:22;;;;;;;56.87;54.40;;;6.30;99.90;;;;;;4392259;32;20156;-59
2022/03/24 01:06:48;;;;;;;51.07;48.93;;;6.30;99.90;;;;;;4391951;32;20171;-59
2022/03/24 01:09:15;;;;;;;47.13;45.07;;;6.30;99.90;;;;;;4391942;32;20186;-59
2022/03/24 01:11:45;;;;;;;47.10;45.07;;;6.30;99.90;;;;;;4391442;32;20151;-59
2022/03/24 01:14:11;;;;;;;52.33;50.13;;;6.20;99.90;;;;;;4392445;32;20178;-58
2022/03/24 01:16:39;;;;;;;53.07;50.77;;;6.20;99.90;;;;;;4392678;32;20170;-59
2022/03/24 01:19:06;;;;;;;48.93;46.80;;;6.20;99.90;;;;;;4392313;32;20200;-58
2022/03/24 01:21:33;;;;;;;50.77;48.67;;;6.20;99.90;;;;;;4391945;32;20207;-59
2022/03/24 01:24:00;;;;;;;49.50;47.43;;;6.10;99.90;;;;;;4391763;32;20245;-59
2022/03/24 02:58:27;;;;;;;51.93;49.50;;;4.20;99.90;;;;;;4361957;31;2830292;-59
2022/03/24 03:00:54;;;;;;;27.30;25.87;;;4.80;99.90;;;;;;4450488;32;20588;-58
2022/03/24 03:03:24;;;;;;;20.43;19.23;;;4.90;99.90;;;;;;4448634;32;20177;-60
2022/03/24 03:05:58;;;;;;;23.50;22.27;;;4.90;99.90;;;;;;4448664;32;20143;-60
2022/03/24 03:08:30;;;;;;;24.27;22.97;;;4.90;99.90;;;;;;4451381;32;20142;-59
2022/03/24 03:10:57;;;;;;;21.10;19.90;;;4.90;99.90;;;;;;4453956;32;20150;-59
2022/03/24 03:13:24;;;;;;;20.67;19.57;;;5.00;99.90;;;;;;4461856;32;20147;-57
2022/03/24 03:15:52;;;;;;;21.30;20.20;;;4.90;99.90;;;;;;4461725;32;20147;-58
2022/03/24 03:18:19;;;;;;;22.57;21.47;;;4.90;99.90;;;;;;4463848;32;20170;-58
2022/03/24 03:20:47;;;;;;;21.10;20.00;;;4.90;99.90;;;;;;4463166;32;20229;-58
2022/03/24 03:23:14;;;;;;;24.37;23.07;;;4.90;99.90;;;;;;4464672;32;20226;-57
2022/03/24 03:25:41;;;;;;;25.20;23.83;;;4.90;99.90;;;;;;4459062;32;20177;-58
2022/03/24 03:28:08;;;;;;;20.70;19.70;;;4.90;99.90;;;;;;4463502;32;20189;-58
2022/03/24 03:30:35;;;;;;;26.07;24.77;;;4.90;99.90;;;;;;4464226;32;20149;-58
2022/03/24 03:33:04;;;;;;;22.67;21.50;;;4.90;99.90;;;;;;4464119;32;20151;-58
2022/03/24 03:35:30;;;;;;;23.97;22.60;;;4.80;99.90;;;;;;4458136;32;20169;-58
2022/03/24 03:37:58;;;;;;;21.63;20.63;;;4.80;99.90;;;;;;4463799;32;20608;-59
2022/03/24 03:40:27;;;;;;;25.07;23.77;;;4.80;99.90;;;;;;4465293;32;20187;-59
2022/03/24 03:42:54;;;;;;;22.07;20.97;;;4.80;99.90;;;;;;4449880;32;20144;-59
2022/03/24 03:45:21;;;;;;;23.53;22.43;;;4.80;99.90;;;;;;4457456;32;20158;-59
2022/03/24 03:47:48;;;;;;;23.50;22.37;;;4.70;99.90;;;;;;4451306;32;20174;-59
2022/03/24 03:50:16;;;;;;;24.00;22.80;;;4.70;99.90;;;;;;4448152;32;20204;-58
2022/03/24 03:52:45;;;;;;;22.83;21.73;;;4.70;99.90;;;;;;4460510;32;20154;-57
2022/03/24 03:55:12;;;;;;;23.73;22.70;;;4.70;99.90;;;;;;4464439;32;20151;-59
2022/03/24 03:57:39;;;;;;;23.60;22.40;;;4.60;99.90;;;;;;4458076;32;20173;-59
2022/03/24 04:02:48;;;;;;;25.30;23.83;;;4.50;99.90;;;;;;4453773;32;20242;-58
2022/03/24 04:05:23;;;;;;;22.73;21.60;;;4.50;99.90;;;;;;4453483;32;20147;-59
2022/03/24 04:07:51;;;;;;;22.80;21.80;;;4.50;99.90;;;;;;4443742;32;20228;-59
2022/03/24 04:10:21;;;;;;;22.90;21.80;;;4.40;99.90;;;;;;4437639;32;20127;-59
2022/03/24 04:12:49;;;;;;;21.60;20.47;;;4.40;99.90;;;;;;4437928;32;20139;-58
2022/03/24 04:15:16;;;;;;;22.67;21.47;;;4.40;99.90;;;;;;4438408;32;20472;-58
2022/03/24 04:17:43;;;;;;;20.63;19.53;;;4.30;99.90;;;;;;4445936;32;20206;-58
2022/03/24 04:20:13;;;;;;;22.40;21.17;;;4.30;99.90;;;;;;4453175;32;20185;-60
2022/03/24 04:22:41;;;;;;;21.97;20.97;;;4.30;99.90;;;;;;4452482;32;20474;-59
2022/03/24 04:25:09;;;;;;;24.17;22.80;;;4.30;99.90;;;;;;4453457;32;20462;-58
2022/03/24 04:27:36;;;;;;;24.03;22.73;;;4.30;99.90;;;;;;4448878;32;20567;-58
2022/03/24 04:30:03;;;;;;;22.53;21.37;;;4.20;99.90;;;;;;4437634;32;20127;-58
2022/03/24 04:32:30;;;;;;;22.77;21.73;;;4.20;99.90;;;;;;4438234;32;20160;-60
2022/03/24 04:34:57;;;;;;;21.60;20.50;;;4.20;99.90;;;;;;4437487;32;20162;-59
2022/03/24 04:37:25;;;;;;;26.80;24.57;;;4.20;99.90;;;;;;4440452;32;20329;-58
2022/03/24 04:39:53;;;;;;;23.00;21.93;;;4.10;99.90;;;;;;4454693;32;20628;-59
2022/03/24 04:42:22;;;;;;;23.70;22.50;;;4.10;99.90;;;;;;4449079;32;20167;-59
2022/03/24 04:44:48;;;;;;;23.90;22.47;;;4.10;99.90;;;;;;4452141;32;20173;-57
2022/03/24 04:47:15;;;;;;;21.43;20.33;;;4.10;99.90;;;;;;4451620;32;20519;-59
2022/03/24 04:49:43;;;;;;;24.47;23.27;;;4.00;99.90;;;;;;4438549;32;20139;-59
2022/03/24 04:52:12;;;;;;;25.57;24.17;;;4.00;99.90;;;;;;4437298;32;20186;-59
2022/03/24 04:54:39;;;;;;;21.50;20.40;;;4.00;99.90;;;;;;4439141;32;20149;-60
2022/03/24 04:57:07;;;;;;;22.87;21.57;;;4.00;99.90;;;;;;4436970;32;20159;-60
2022/03/24 04:59:36;;;;;;;22.20;20.60;;;4.00;99.90;;;;;;4449762;32;20139;-59
2022/03/24 05:02:03;;;;;;;19.00;18.00;;;4.00;99.90;;;;;;4452635;32;20158;-58
2022/03/24 05:04:30;;;;;;;18.77;17.87;;;4.00;99.90;;;;;;4449865;32;20519;-58
2022/03/24 05:06:58;;;;;;;20.63;19.17;;;4.00;99.90;;;;;;4438205;32;20176;-59
2022/03/24 05:09:25;;;;;;;20.03;18.80;;;4.00;99.90;;;;;;4451184;32;20157;-59
2022/03/24 05:11:55;;;;;;;24.33;23.03;;;4.00;99.90;;;;;;4452538;32;20138;-58
2022/03/24 05:14:24;;;;;;;21.97;20.80;;;3.90;99.90;;;;;;4452348;32;20142;-59
2022/03/24 05:16:52;;;;;;;21.20;20.10;;;3.90;99.90;;;;;;4450563;32;20135;-59
2022/03/24 05:19:19;;;;;;;22.73;21.47;;;3.90;99.90;;;;;;4445534;32;20159;-58
2022/03/24 05:21:47;;;;;;;23.17;22.13;;;3.90;99.90;;;;;;4452326;32;20270;-57
2022/03/24 05:24:15;;;;;;;25.57;24.20;;;3.90;99.90;;;;;;4452319;32;20173;-60
2022/03/24 05:26:45;;;;;;;22.10;20.90;;;3.90;99.90;;;;;;4452706;32;20151;-57
2022/03/24 05:29:12;;;;;;;22.00;20.77;;;3.90;99.90;;;;;;4447790;32;20221;-59
2022/03/24 05:31:40;;;;;;;23.00;21.60;;;3.90;99.90;;;;;;4437786;32;20201;-57
2022/03/24 05:34:10;;;;;;;21.63;20.63;;;3.90;99.90;;;;;;4436731;32;20148;-60
2022/03/24 05:36:41;;;;;;;22.77;21.30;;;3.90;99.90;;;;;;4436798;32;20139;-57
2022/03/24 05:39:09;;;;;;;20.70;19.40;;;3.90;99.90;;;;;;4438516;32;20161;-59
2022/03/24 05:41:44;;;;;;;23.57;22.33;;;3.90;99.90;;;;;;4438278;32;20184;-58
2022/03/24 05:44:10;;;;;;;21.53;20.30;;;3.90;99.90;;;;;;4436552;32;20143;-59
2022/03/24 05:46:41;;;;;;;23.07;21.77;;;4.00;99.90;;;;;;4448258;32;20135;-59
2022/03/24 05:49:14;;;;;;;24.33;22.90;;;4.00;99.90;;;;;;4449300;32;20146;-58
2022/03/24 05:51:50;;;;;;;21.63;20.47;;;4.00;99.90;;;;;;4439397;32;20166;-58
2022/03/24 05:54:18;;;;;;;20.33;19.43;;;4.10;99.90;;;;;;4450178;32;20483;-59
2022/03/24 05:56:50;;;;;;;24.83;23.43;;;4.10;99.90;;;;;;4439675;32;20613;-58
2022/03/24 05:59:20;;;;;;;22.13;21.03;;;4.20;99.90;;;;;;4437973;32;20146;-58
2022/03/24 06:01:48;;;;;;;21.37;20.37;;;4.20;99.90;;;;;;4442514;32;20158;-59
2022/03/24 06:04:19;;;;;;;23.97;22.67;;;4.30;99.90;;;;;;4439035;32;20136;-59
2022/03/24 06:06:54;;;;;;;23.30;22.07;;;4.40;99.90;;;;;;4438679;32;20127;-57
2022/03/24 06:09:24;;;;;;;22.37;21.10;;;4.40;99.90;;;;;;4450855;32;20226;-56
2022/03/24 06:11:59;;;;;;;22.10;21.10;;;4.40;99.90;;;;;;4447649;32;20147;-57
2022/03/24 06:14:30;;;;;;;20.90;19.73;;;4.60;99.90;;;;;;4441812;32;20208;-56
2022/03/24 06:17:04;;;;;;;22.63;21.63;;;4.60;99.90;;;;;;4442825;32;20188;-58
2022/03/24 06:19:35;;;;;;;23.83;22.53;;;4.70;99.90;;;;;;4438620;32;20450;-56
2022/03/24 06:22:04;;;;;;;25.53;24.20;;;4.80;99.90;;;;;;4443591;32;20221;-57
2022/03/24 06:24:34;;;;;;;20.77;19.70;;;4.90;99.90;;;;;;4445079;32;20613;-55
2022/03/24 06:27:05;;;;;;;24.70;23.33;;;5.00;99.90;;;;;;4443891;32;20174;-53
2022/03/24 06:29:53;;;;;;;22.00;20.80;;;5.10;99.90;;;;;;4440039;32;20198;-56
2022/03/24 06:39:07;;;;;;;22.40;21.10;;;5.50;99.90;;;;;;4441293;32;20192;-57
2022/03/24 06:41:34;;;;;;;20.90;19.70;;;5.60;99.90;;;;;;4443320;32;20154;-56
2022/03/24 06:44:06;;;;;;;23.87;22.40;;;5.70;99.90;;;;;;4444260;32;20272;-58
2022/03/24 06:46:34;;;;;;;21.13;19.97;;;5.80;99.90;;;;;;4443206;32;20158;-57
2022/03/24 06:49:05;;;;;;;19.97;18.67;;;5.90;99.90;;;;;;4440024;32;20151;-59
2022/03/24 06:51:32;;;;;;;21.60;20.50;;;6.10;99.90;;;;;;4438185;32;20159;-59
2022/03/24 06:54:03;;;;;;;22.53;20.83;;;6.20;99.90;;;;;;4442652;32;20158;-59
2022/03/24 06:56:31;;;;;;;25.27;23.77;;;6.30;99.90;;;;;;4441123;32;20587;-57
2022/03/24 06:58:58;;;;;;;23.17;22.07;;;6.50;99.90;;;;;;4443887;32;20246;-59
2022/03/24 07:01:25;;;;;;;23.47;22.27;;;6.60;99.90;;;;;;4431443;32;20218;-59
2022/03/24 07:03:53;;;;;;;23.43;22.27;;;6.80;99.90;;;;;;4443319;32;20147;-59
2022/03/24 07:06:20;;;;;;;23.93;22.63;;;6.90;99.90;;;;;;4441979;32;20290;-59
2022/03/24 07:08:46;;;;;;;21.50;20.10;;;7.00;99.90;;;;;;4450404;32;20210;-59
2022/03/24 07:11:13;;;;;;;23.03;21.83;;;7.20;99.90;;;;;;4448154;32;20253;-59
2022/03/24 07:13:41;;;;;;;23.63;22.33;;;7.30;99.90;;;;;;4435843;32;20140;-59
2022/03/24 07:16:11;;;;;;;24.47;23.17;;;7.50;99.90;;;;;;4449553;32;20147;-59
2022/03/24 07:18:38;;;;;;;21.70;20.43;;;7.60;99.90;;;;;;4450430;32;20147;-58
2022/03/24 07:21:06;;;;;;;22.33;21.13;;;7.80;99.90;;;;;;4450088;32;20260;-59
2022/03/24 07:23:33;;;;;;;23.30;21.83;;;7.90;99.90;;;;;;4437107;32;20158;-59
2022/03/24 07:26:00;;;;;;;24.40;22.97;;;8.10;99.90;;;;;;4435995;32;20150;-61
2022/03/24 07:28:26;;;;;;;23.47;22.17;;;8.30;99.90;;;;;;4450676;32;20218;-58
2022/03/24 07:30:54;;;;;;;19.93;18.93;;;8.50;99.90;;;;;;4451588;32;20598;-58
2022/03/24 07:33:22;;;;;;;24.07;22.63;;;8.70;99.90;;;;;;4449433;32;20256;-59
2022/03/24 07:35:49;;;;;;;24.43;23.03;;;8.90;99.90;;;;;;4453638;32;20152;-59
2022/03/24 07:38:17;;;;;;;26.20;24.90;;;9.00;99.90;;;;;;4455109;32;20161;-59
2022/03/24 07:40:44;;;;;;;25.13;23.73;;;9.10;99.90;;;;;;4454064;32;20158;-59
2022/03/24 07:43:11;;;;;;;24.43;22.63;;;9.40;99.90;;;;;;4453853;32;20647;-58
2022/03/24 07:45:38;;;;;;;23.57;22.27;;;9.60;99.90;;;;;;4455700;32;20300;-59
2022/03/24 07:48:12;;;;;;;24.30;22.83;;;9.80;99.90;;;;;;4454860;32;20480;-59
2022/03/24 07:50:41;;;;;;;27.53;25.53;;;10.00;99.90;;;;;;4455359;32;20141;-58
2022/03/24 07:53:23;;;;;;;40.90;36.67;;;10.20;99.90;;;;;;4452059;32;20143;-59
2022/03/24 07:55:50;;;;;;;42.23;36.43;;;10.50;99.90;;;;;;4452798;32;20209;-58
2022/03/24 07:58:18;;;;;;;39.07;34.93;;;10.70;99.90;;;;;;4452594;32;20192;-59
2022/03/24 08:00:45;;;;;;;41.80;35.73;;;11.00;99.90;;;;;;4453573;32;20157;-59
2022/03/24 08:03:15;;;;;;;40.43;34.97;;;11.30;98.40;;;;;;4450789;32;20159;-59
2022/03/24 08:05:42;;;;;;;34.07;30.90;;;11.50;97.50;;;;;;4453464;32;20163;-59
2022/03/24 08:08:10;;;;;;;35.97;32.07;;;11.90;96.80;;;;;;4454354;32;20138;-59
2022/03/24 08:10:37;;;;;;;29.70;27.63;;;12.10;96.20;;;;;;4453663;32;20575;-59
2022/03/24 08:13:04;;;;;;;30.87;28.17;;;12.30;95.70;;;;;;4448540;32;20163;-59
2022/03/24 08:15:31;;;;;;;27.53;25.33;;;12.60;94.60;;;;;;4437461;32;20261;-60
2022/03/24 08:17:58;;;;;;;29.50;27.20;;;12.90;94.30;;;;;;4447465;32;20143;-59
2022/03/24 08:20:26;;;;;;;28.80;26.10;;;13.20;93.80;;;;;;4454061;32;20558;-60
2022/03/24 08:22:53;;;;;;;31.43;29.17;;;13.50;93.10;;;;;;4453448;32;20173;-59
2022/03/24 08:25:20;;;;;;;36.70;34.27;;;13.80;92.50;;;;;;4454945;32;20222;-59
2022/03/24 08:27:47;;;;;;;33.83;31.43;;;14.10;92.20;;;;;;4453300;32;20150;-59
2022/03/24 08:30:17;;;;;;;33.00;30.37;;;14.40;91.30;;;;;;4454488;32;20147;-60
2022/03/24 08:32:44;;;;;;;31.83;29.20;;;14.80;90.70;;;;;;4452271;32;20218;-59
2022/03/24 08:35:11;;;;;;;32.03;29.67;;;15.10;88.40;;;;;;4440838;32;20188;-59
2022/03/24 08:37:39;;;;;;;31.57;29.27;;;15.40;87.20;;;;;;4437679;32;20225;-60
2022/03/24 08:40:08;;;;;;;30.50;28.33;;;15.80;82.70;;;;;;4438702;32;20820;-60
2022/03/24 08:42:36;;;;;;;30.37;27.83;;;16.30;78.80;;;;;;4453686;32;20142;-60
2022/03/24 08:45:07;;;;;;;32.93;30.47;;;16.80;75.20;;;;;;4440102;32;20163;-60
2022/03/24 08:47:37;;;;;;;32.87;30.43;;;18.30;71.20;;;;;;4438067;32;20577;-60
2022/03/24 08:50:06;;;;;;;30.93;28.73;;;19.20;67.10;;;;;;4452760;32;20185;-59
2022/03/24 08:52:33;;;;;;;27.73;25.33;;;18.80;65.60;;;;;;4453330;32;20158;-59
2022/03/24 08:55:01;;;;;;;29.00;26.67;;;18.20;65.10;;;;;;4450958;32;20148;-58
2022/03/24 08:57:34;;;;;;;33.73;31.07;;;17.80;65.90;;;;;;4447597;32;20163;-58
2022/03/24 09:00:07;;;;;;;28.67;26.30;;;17.50;66.00;;;;;;4445759;32;20622;-59
2022/03/24 09:02:35;;;;;;;28.10;25.80;;;16.90;62.60;;;;;;4442960;32;20147;-58
2022/03/24 09:05:02;;;;;;;29.53;27.13;;;16.80;63.80;;;;;;4443593;32;20170;-59
2022/03/24 09:07:29;;;;;;;27.43;25.23;;;16.80;64.50;;;;;;4443276;32;20162;-58
2022/03/24 09:09:55;;;;;;;25.53;23.43;;;16.80;63.60;;;;;;4441917;32;20146;-58
2022/03/24 09:12:27;;;;;;;23.40;21.60;;;16.60;61.30;;;;;;4445738;32;20153;-58
2022/03/24 09:14:54;;;;;;;19.60;18.07;;;16.40;61.40;;;;;;4443390;32;20654;-58
2022/03/24 09:17:21;;;;;;;20.40;18.80;;;16.40;57.40;;;;;;4444243;32;20209;-58
2022/03/24 09:19:48;;;;;;;21.17;19.47;;;16.20;59.30;;;;;;4443700;32;20147;-57
2022/03/24 09:22:15;;;;;;;22.17;20.30;;;16.30;58.90;;;;;;4444791;32;20439;-58
2022/03/24 09:24:41;;;;;;;20.47;18.83;;;16.40;58.30;;;;;;4444504;32;20257;-58
2022/03/24 09:27:08;;;;;;;23.00;21.30;;;16.60;57.50;;;;;;4443714;32;20229;-58
2022/03/24 09:29:36;;;;;;;19.63;18.00;;;16.60;57.70;;;;;;4445554;32;20574;-57
2022/03/24 09:32:12;;;;;;;18.63;16.93;;;16.70;56.80;;;;;;4443355;32;20171;-58
2022/03/24 09:34:39;;;;;;;20.80;19.10;;;16.70;55.30;;;;;;4446808;32;20241;-58
2022/03/24 09:37:06;;;;;;;23.43;21.60;;;16.50;55.10;;;;;;4444975;32;20226;-58
2022/03/24 09:39:32;;;;;;;20.77;18.97;;;16.60;57.30;;;;;;4445257;32;20146;-60
2022/03/24 09:41:59;;;;;;;23.43;21.53;;;16.70;56.60;;;;;;4443530;32;20151;-58
2022/03/24 09:44:26;;;;;;;23.03;21.13;;;16.70;56.40;;;;;;4442974;32;20479;-60
2022/03/24 09:46:54;;;;;;;25.37;23.37;;;16.80;55.80;;;;;;4442084;32;20159;-58
2022/03/24 09:49:21;;;;;;;22.57;20.77;;;16.90;57.40;;;;;;4445259;32;20264;-58
2022/03/24 09:51:52;;;;;;;22.23;20.33;;;16.90;53.70;;;;;;4443642;32;20166;-58
2022/03/24 09:54:18;;;;;;;21.47;19.63;;;17.00;54.60;;;;;;4444338;32;20246;-58
2022/03/24 09:56:45;;;;;;;22.17;20.10;;;17.10;53.20;;;;;;4444624;32;20139;-58
2022/03/24 09:59:12;;;;;;;21.33;19.67;;;17.00;54.10;;;;;;4444742;32;20244;-57
2022/03/24 10:01:40;;;;;;;23.07;21.13;;;17.20;54.60;;;;;;4444041;32;20285;-58
2022/03/24 10:04:11;;;;;;;21.00;19.33;;;17.20;52.40;;;;;;4445161;32;20169;-59
2022/03/24 10:06:40;;;;;;;19.77;18.20;;;17.30;52.60;;;;;;4442896;32;20189;-57
2022/03/24 10:09:08;;;;;;;20.50;18.90;;;17.30;51.50;;;;;;4443914;32;20150;-59
2022/03/24 10:11:36;;;;;;;22.33;20.67;;;17.30;50.80;;;;;;4444338;32;20148;-58
2022/03/24 10:14:10;;;;;;;21.57;19.83;;;17.40;50.80;;;;;;4444125;32;20575;-59
2022/03/24 10:16:41;;;;;;;20.07;18.47;;;17.40;50.80;;;;;;4443844;32;20150;-60
2022/03/24 10:19:12;;;;;;;20.47;18.93;;;17.40;51.10;;;;;;4443867;32;20151;-59
2022/03/24 10:21:40;;;;;;;23.27;21.37;;;17.40;52.30;;;;;;4442371;32;20301;-59
2022/03/24 10:24:10;;;;;;;22.03;20.17;;;17.50;52.30;;;;;;4448801;32;20147;-59
2022/03/24 10:26:42;;;;;;;22.93;20.97;;;17.50;52.00;;;;;;4444425;32;20185;-59
2022/03/24 10:29:10;;;;;;;23.77;21.90;;;17.60;51.70;;;;;;4443691;32;20270;-59
2022/03/24 10:31:39;;;;;;;23.90;22.20;;;17.60;51.80;;;;;;4447085;32;20189;-59
2022/03/24 10:34:10;;;;;;;23.33;21.63;;;17.60;52.70;;;;;;4451946;32;20153;-59
2022/03/24 10:36:41;;;;;;;22.53;20.77;;;17.60;52.10;;;;;;4449606;32;20147;-59
2022/03/24 10:39:08;;;;;;;23.83;21.93;;;17.60;52.10;;;;;;4453171;32;20166;-59
2022/03/24 10:41:37;;;;;;;22.47;20.50;;;17.80;51.90;;;;;;4446134;32;20529;-59
2022/03/24 10:44:07;;;;;;;25.63;23.73;;;17.80;51.50;;;;;;4443352;32;20182;-59
2022/03/24 10:46:36;;;;;;;25.07;23.27;;;17.70;52.70;;;;;;4443096;32;20155;-59
2022/03/24 10:49:16;;;;;;;24.73;22.93;;;17.80;52.50;;;;;;4441904;32;20600;-58
2022/03/24 10:51:45;;;;;;;26.13;24.10;;;17.80;52.40;;;;;;4443219;32;20158;-59
2022/03/24 10:54:23;;;;;;;26.63;24.83;;;17.70;51.70;;;;;;4441701;32;20194;-59
2022/03/24 10:56:58;;;;;;;29.27;27.37;;;17.40;52.20;;;;;;4441229;32;20146;-59
2022/03/24 10:59:29;;;;;;;26.50;24.50;;;17.40;53.70;;;;;;4441572;32;20272;-58
2022/03/24 11:01:56;;;;;;;27.13;24.83;;;17.40;52.60;;;;;;4444561;32;20171;-59
2022/03/24 11:04:23;;;;;;;26.57;24.77;;;17.30;53.20;;;;;;4441565;32;20143;-59
2022/03/24 11:06:52;;;;;;;23.47;21.80;;;17.30;53.20;;;;;;4442338;32;20211;-60
2022/03/24 11:09:24;;;;;;;23.40;21.80;;;17.40;52.00;;;;;;4446951;32;20177;-60
2022/03/24 11:12:28;;;;;;;26.70;24.90;;;17.50;52.10;;;;;;4446721;32;20157;-59
2022/03/24 11:14:56;;;;;;;27.70;25.90;;;17.70;53.10;;;;;;4445614;32;20276;-59
2022/03/24 11:17:25;;;;;;;28.00;26.27;;;17.60;53.20;;;;;;4441821;32;20218;-59
2022/03/24 11:19:58;;;;;;;31.50;29.40;;;17.60;53.60;;;;;;4445053;32;20189;-60
2022/03/24 11:22:40;;;;;;;27.63;25.60;;;17.70;53.90;;;;;;4447796;32;20230;-60
2022/03/24 11:25:09;;;;;;;36.37;34.13;;;17.80;54.10;;;;;;4447617;32;20644;-59
2022/03/24 11:27:39;;;;;;;32.40;30.10;;;17.80;53.90;;;;;;4445795;32;20135;-59
2022/03/24 11:30:10;;;;;;;35.93;33.67;;;17.90;54.10;;;;;;4444496;32;20219;-57
2022/03/24 11:32:41;;;;;;;37.20;34.93;;;18.00;54.30;;;;;;4445781;32;20166;-59
2022/03/24 11:35:12;;;;;;;35.63;33.53;;;18.00;53.90;;;;;;4448212;32;20161;-58
2022/03/24 11:37:41;;;;;;;38.37;35.97;;;17.80;53.40;;;;;;4447401;32;20155;-59
2022/03/24 11:40:13;;;;;;;35.17;33.03;;;17.80;54.60;;;;;;4446430;32;20150;-58
2022/03/24 11:42:46;;;;;;;39.10;37.07;;;17.90;55.00;;;;;;4448146;32;20186;-59
2022/03/24 11:45:19;;;;;;;41.40;38.97;;;18.00;55.40;;;;;;4450402;32;20146;-59
2022/03/24 11:47:55;;;;;;;41.70;39.27;;;17.90;55.70;;;;;;4453295;32;20204;-59
2022/03/24 11:50:36;;;;;;;44.53;41.83;;;18.00;56.80;;;;;;4447780;32;20145;-59
2022/03/24 11:53:16;;;;;;;37.83;35.77;;;18.10;55.50;;;;;;4453572;32;20148;-59
2022/03/24 11:56:01;;;;;;;38.57;36.37;;;18.10;55.70;;;;;;4453666;32;20174;-59
2022/03/24 11:58:32;;;;;;;45.53;42.97;;;18.10;56.00;;;;;;4452833;32;20211;-59
2022/03/24 12:01:28;;;;;;;48.43;45.97;;;18.10;56.70;;;;;;4455391;32;20169;-59
2022/03/24 12:04:04;;;;;;;65.03;61.83;;;18.00;57.10;;;;;;4455208;32;20157;-59
2022/03/24 12:06:52;;;;;;;73.23;69.83;;;18.00;59.10;;;;;;4454561;32;20142;-59
2022/03/24 12:09:38;;;;;;;59.47;56.20;;;18.00;60.20;;;;;;4446427;32;20161;-59
2022/03/24 12:12:10;;;;;;;58.90;56.07;;;17.90;59.20;;;;;;4438106;32;20146;-59
2022/03/24 12:14:44;;;;;;;72.20;68.60;;;18.00;59.10;;;;;;4437935;32;20228;-58
2022/03/24 12:17:19;;;;;;;75.67;72.07;;;17.70;59.40;;;;;;4447624;32;20164;-61
2022/03/24 12:19:49;;;;;;;73.63;70.07;;;17.60;60.30;;;;;;4451112;32;20222;-58
2022/03/24 12:22:47;;;;;;;86.17;81.90;;;17.80;60.90;;;;;;4454880;32;20558;-59
2022/03/24 12:25:30;;;;;;;87.40;83.40;;;18.00;61.70;;;;;;4454013;32;20230;-58
2022/03/24 12:28:00;;;;;;;84.97;81.17;;;18.10;62.00;;;;;;4449163;32;20267;-58
2022/03/24 12:30:40;;;;;;;85.40;81.57;;;18.10;62.10;;;;;;4437933;32;20163;-58
2022/03/24 12:33:08;;;;;;;83.43;79.43;;;18.00;62.00;;;;;;4437499;32;20222;-59
2022/03/24 12:35:44;;;;;;;75.43;71.73;;;18.00;61.50;;;;;;4437055;32;20233;-59
2022/03/24 12:38:48;;;;;;;86.33;82.43;;;18.00;60.90;;;;;;4439545;32;20143;-59
2022/03/24 12:41:23;;;;;;;79.33;75.70;;;18.10;61.50;;;;;;4392052;32;20736;-59
2022/03/24 12:43:59;;;;;;;81.67;77.97;;;18.20;61.40;;;;;;4395248;32;20209;-59
2022/03/24 12:46:39;;;;;;;93.80;89.40;;;18.20;61.30;;;;;;4391069;32;20579;-59
2022/03/24 12:49:33;;;;;;;78.87;75.10;;;18.20;61.20;;;;;;4398396;32;20238;-59
2022/03/24 12:52:06;;;;;;;76.07;72.63;;;18.30;61.80;;;;;;4391299;32;20573;-59
2022/03/24 12:54:48;;;;;;;89.73;85.80;;;18.40;61.30;;;;;;4389256;32;20543;-59
2022/03/24 12:57:32;;;;;;;95.90;91.63;;;18.30;61.90;;;;;;4389493;32;20183;-58
2022/03/24 12:59:59;;;;;;;96.80;92.50;;;18.30;62.60;;;;;;4392401;32;20152;-58
2022/03/24 13:02:26;;;;;;;109.63;105.10;;;18.00;63.00;;;;;;4401859;32;20148;-59
2022/03/24 13:04:56;;;;;;;109.73;105.10;;;18.00;64.00;;;;;;4395606;32;20567;-59
2022/03/24 13:07:27;;;;;;;102.17;97.73;;;17.70;64.70;;;;;;4395421;32;20287;-59
2022/03/24 13:10:07;;;;;;;96.00;91.87;;;17.60;63.80;;;;;;4392892;32;20600;-59
2022/03/24 13:12:37;;;;;;;90.93;86.93;;;17.50;63.60;;;;;;4390775;32;20174;-58
2022/03/24 13:15:08;;;;;;;106.70;102.00;;;17.50;63.90;;;;;;4390748;32;20173;-59
2022/03/24 13:17:39;;;;;;;108.90;104.00;;;17.70;64.90;;;;;;4433437;32;20184;-59
2022/03/24 13:20:07;;;;;;;103.97;99.30;;;17.90;65.10;;;;;;4436355;32;20588;-58
2022/03/24 13:22:34;;;;;;;106.97;102.20;;;18.00;64.40;;;;;;4437123;32;20234;-59
2022/03/24 13:25:07;;;;;;;109.93;105.13;;;18.00;64.60;;;;;;4444868;32;20641;-59
2022/03/24 13:27:37;;;;;;;104.50;100.10;;;18.00;64.50;;;;;;4442783;32;20151;-58
2022/03/24 13:30:07;;;;;;;102.07;97.53;;;18.00;64.50;;;;;;4443054;32;20171;-59
2022/03/24 13:32:34;;;;;;;112.93;107.83;;;18.00;64.90;;;;;;4448899;32;20516;-59
2022/03/24 13:35:04;;;;;;;112.30;107.20;;;17.90;65.20;;;;;;4444717;32;20208;-58
2022/03/24 13:37:35;;;;;;;115.77;110.83;;;18.00;65.00;;;;;;4450081;32;20147;-58
2022/03/24 13:40:04;;;;;;;108.30;103.80;;;18.10;65.40;;;;;;4441446;32;20289;-59
2022/03/24 13:42:34;;;;;;;109.73;105.20;;;18.30;64.30;;;;;;4445767;32;20154;-58
2022/03/24 13:45:02;;;;;;;104.20;99.77;;;18.40;63.90;;;;;;4446943;32;20181;-59
2022/03/24 13:47:29;;;;;;;105.83;101.07;;;18.40;63.90;;;;;;4438240;32;20155;-59
2022/03/24 13:49:59;;;;;;;104.97;100.47;;;18.40;64.20;;;;;;4436635;32;20136;-59
2022/03/24 13:52:38;;;;;;;103.90;99.40;;;18.50;64.10;;;;;;4449145;32;20139;-59
2022/03/24 13:55:11;;;;;;;107.97;103.17;;;18.40;63.90;;;;;;4442094;32;20151;-59
2022/03/24 13:57:56;;;;;;;120.10;114.70;;;18.40;64.70;;;;;;4445992;32;20541;-59
2022/03/24 14:00:31;;;;;;;116.67;111.67;;;18.20;65.20;;;;;;4437660;32;20152;-59
2022/03/24 14:03:08;;;;;;;112.00;107.23;;;18.10;65.10;;;;;;4450700;32;20256;-59
2022/03/24 14:05:54;;;;;;;119.83;114.67;;;18.00;65.40;;;;;;4451049;32;20199;-59
2022/03/24 14:08:38;;;;;;;121.13;115.93;;;17.80;65.50;;;;;;4449244;32;20234;-59
2022/03/24 14:11:12;;;;;;;112.93;108.03;;;17.80;66.20;;;;;;4449740;32;20166;-59
2022/03/24 14:13:41;;;;;;;115.47;110.23;;;17.80;66.20;;;;;;4450043;32;20187;-60
2022/03/24 14:16:19;;;;;;;108.27;103.47;;;17.80;66.30;;;;;;4447124;32;20489;-59
2022/03/24 14:19:06;;;;;;;111.40;106.30;;;17.90;65.90;;;;;;4442202;32;20165;-58
2022/03/24 14:21:44;;;;;;;114.10;109.17;;;18.00;65.80;;;;;;4447410;32;20204;-60
2022/03/24 14:24:12;;;;;;;121.73;116.40;;;18.10;65.70;;;;;;4436897;32;20276;-59
2022/03/24 14:26:56;;;;;;;117.33;112.27;;;18.20;66.10;;;;;;4441397;32;20225;-59